Time;durP1;ratioP1;P1;durP2;ratioP2;P2;SDS_P1;SDS_P2;PMS_P1;PMS_P2;Temp;Humidity;BMP_temperature;BMP_pressure;BME280_temperature;BME280_humidity;BME280_pressure;Samples;Min_cycle;Max_cycle;Signal;HPM_P1;HPM_P2
2021/12/02 00:02:10;;;;;;;;;;;;;;;3.95;100.00;97832.06;5072939;28;19982;-70
2021/12/02 00:04:37;;;;;;;;;;;;;;;4.00;100.00;97837.00;5073662;28;19958;-70
2021/12/02 00:07:04;;;;;;;;;;;;;;;4.08;100.00;97850.47;5072886;28;20526;-70
2021/12/02 00:09:32;;;;;;;;;;;;;;;3.97;100.00;97869.53;5071718;28;19966;-70
2021/12/02 00:11:58;;;;;;;;;;;;;;;3.79;100.00;97856.91;5072596;28;19952;-70
2021/12/02 00:14:26;;;;;;;1999.90;999.90;;;;;;;3.59;100.00;97885.69;5071246;28;20472;-70
2021/12/02 00:17:04;;;;;;;1999.90;999.90;;;;;;;3.46;100.00;97893.25;5071532;28;20561;-71
2021/12/02 00:22:16;;;;;;;1999.90;999.90;;;;;;;3.06;100.00;97919.38;5072094;28;20099;-71
2021/12/02 00:24:52;;;;;;;1999.90;999.90;;;;;;;2.97;100.00;97912.22;5054104;28;20120;-71
2021/12/02 00:27:19;;;;;;;1999.90;999.90;;;;;;;2.89;100.00;97936.22;5071672;28;20101;-71
2021/12/02 00:29:46;;;;;;;1999.90;999.90;;;;;;;2.72;100.00;97930.56;5057878;28;20131;-71
2021/12/02 00:32:14;;;;;;;1999.90;999.90;;;;;;;2.62;100.00;97959.19;5054008;28;20096;-71
2021/12/02 00:34:44;;;;;;;1999.90;999.90;;;;;;;2.54;100.00;97964.41;5071907;28;20113;-71
2021/12/02 00:37:10;;;;;;;1999.90;999.90;;;;;;;2.43;100.00;97973.44;5071655;28;20538;-71
2021/12/02 00:39:38;;;;;;;1999.90;999.90;;;;;;;2.34;100.00;97972.47;5071615;28;20196;-71
2021/12/02 00:42:07;;;;;;;1999.90;999.90;;;;;;;2.23;100.00;97972.56;5071834;28;20604;-71
2021/12/02 00:44:36;;;;;;;1999.90;999.90;;;;;;;2.12;100.00;97974.38;5071476;28;20577;-71
2021/12/02 00:47:02;;;;;;;1999.90;999.90;;;;;;;2.09;100.00;97992.56;5071295;28;20108;-71
2021/12/02 00:49:29;;;;;;;1999.90;999.90;;;;;;;2.03;100.00;97996.63;5071664;28;20329;-71
2021/12/02 00:51:58;;;;;;;1999.90;999.90;;;;;;;2.01;100.00;97961.97;5071776;28;20111;-71
2021/12/02 00:54:26;;;;;;;1999.90;999.90;;;;;;;1.99;100.00;97960.41;5071517;28;20162;-71
2021/12/02 00:56:54;;;;;;;1999.90;999.90;;;;;;;2.03;100.00;97950.28;5070676;28;20524;-71
2021/12/02 00:59:23;;;;;;;1999.90;999.90;;;;;;;2.06;100.00;97953.56;5071429;28;20101;-71
2021/12/02 01:01:51;;;;;;;1999.90;999.90;;;;;;;2.11;100.00;97983.44;5071209;28;20097;-71
2021/12/02 01:04:23;;;;;;;1999.90;999.90;;;;;;;2.13;100.00;97937.78;5071731;28;20554;-71
2021/12/02 01:06:50;;;;;;;1999.90;999.90;;;;;;;2.15;100.00;97986.66;5071021;28;20107;-71
2021/12/02 01:09:16;;;;;;;1999.90;999.90;;;;;;;2.13;100.00;97992.13;5071266;28;20127;-71
2021/12/02 01:11:43;;;;;;;1999.90;999.90;;;;;;;2.07;100.00;97982.00;5071319;28;20081;-71
2021/12/02 01:14:11;;;;;;;1999.90;999.90;;;;;;;2.08;100.00;97986.34;5071083;28;20097;-71
2021/12/02 01:16:39;;;;;;;1999.90;999.90;;;;;;;2.03;100.00;97996.63;5071375;28;20116;-71
2021/12/02 01:19:07;;;;;;;1999.90;999.90;;;;;;;1.94;100.00;98003.66;5070927;28;20129;-71
2021/12/02 01:21:38;;;;;;;1999.90;999.90;;;;;;;1.85;100.00;97993.78;5071420;28;20138;-71
2021/12/02 01:24:06;;;;;;;1999.90;999.90;;;;;;;1.86;100.00;97994.59;5070878;28;20097;-71
2021/12/02 01:26:34;;;;;;;1999.90;999.90;;;;;;;1.92;100.00;98002.09;5070965;28;20125;-71
2021/12/02 01:29:02;;;;;;;1999.90;999.90;;;;;;;1.92;100.00;97997.56;5071022;28;20104;-71
2021/12/02 01:31:31;;;;;;;1999.90;999.90;;;;;;;1.87;100.00;97994.50;5073508;28;20101;-71
2021/12/02 01:34:01;;;;;;;1999.90;999.90;;;;;;;1.86;100.00;98016.00;5071020;28;20092;-71
2021/12/02 01:36:32;;;;;;;1999.90;999.90;;;;;;;1.81;100.00;98021.78;5070927;28;20552;-71
2021/12/02 01:38:59;;;;;;;1999.90;999.90;;;;;;;1.85;100.00;98017.84;5052125;28;20994;-71
2021/12/02 01:41:26;;;;;;;1999.90;999.90;;;;;;;1.79;100.00;98043.31;5070890;28;20740;-70
2021/12/02 01:43:54;;;;;;;1999.90;999.90;;;;;;;1.75;100.00;98031.19;5071280;28;20117;-71
2021/12/02 01:46:24;;;;;;;1999.90;999.90;;;;;;;1.72;100.00;98034.13;5070924;28;20542;-71
2021/12/02 01:49:00;;;;;;;1999.90;999.90;;;;;;;1.62;100.00;98034.09;5070639;28;20127;-71
2021/12/02 01:51:29;;;;;;;1999.90;999.90;;;;;;;1.64;100.00;98028.59;5070972;28;20100;-71
2021/12/02 01:54:03;;;;;;;1999.90;999.90;;;;;;;1.64;100.00;98039.28;5070827;28;20109;-70
2021/12/02 01:56:32;;;;;;;1999.90;999.90;;;;;;;1.55;100.00;98034.75;5070767;28;20096;-71
2021/12/02 01:59:09;;;;;;;1999.90;999.90;;;;;;;1.48;100.00;98019.25;5070612;28;20081;-71
2021/12/02 02:01:37;;;;;;;1999.90;999.90;;;;;;;1.45;100.00;98026.69;5070822;28;20172;-71
2021/12/02 02:04:04;;;;;;;1999.90;999.90;;;;;;;1.45;100.00;98032.03;5070606;28;20136;-70
2021/12/02 02:06:38;;;;;;;1999.90;999.90;;;;;;;1.39;100.00;98028.06;5070717;28;20585;-71
2021/12/02 02:09:07;;;;;;;1999.90;999.90;;;;;;;1.45;100.00;98042.72;5070587;28;20186;-71
2021/12/02 02:11:34;;;;;;;1999.90;999.90;;;;;;;1.50;100.00;98033.31;5070593;28;20096;-70
2021/12/02 02:14:01;;;;;;;1999.90;999.90;;;;;;;1.50;100.00;98037.84;5070792;28;20124;-71
2021/12/02 02:16:28;;;;;;;1999.90;999.90;;;;;;;1.53;100.00;98034.88;5070439;28;20164;-70
2021/12/02 02:18:55;;;;;;;1999.90;999.90;;;;;;;1.48;100.00;98045.13;5070620;28;20427;-69
2021/12/02 02:21:23;;;;;;;1999.90;999.90;;;;;;;1.50;100.00;98060.06;5070615;28;20214;-70
2021/12/02 02:23:52;;;;;;;1999.90;999.90;;;;;;;1.42;100.00;98062.56;5070449;28;20100;-71
2021/12/02 02:26:23;;;;;;;1999.90;999.90;;;;;;;1.50;100.00;98052.03;5070601;28;20482;-70
2021/12/02 02:28:50;;;;;;;1999.90;999.90;;;;;;;1.62;100.00;98057.31;5070426;28;20162;-71
2021/12/02 02:31:17;;;;;;;1999.90;999.90;;;;;;;1.67;100.00;98042.56;5070798;28;20169;-70
2021/12/02 02:33:48;;;;;;;1999.90;999.90;;;;;;;1.71;100.00;98069.03;5074092;28;20093;-70
2021/12/02 02:36:14;;;;;;;1999.90;999.90;;;;;;;1.86;100.00;98070.38;5074047;28;20120;-70
2021/12/02 02:38:44;;;;;;;1999.90;999.90;;;;;;;1.92;100.00;98059.13;5074191;28;20512;-70
2021/12/02 02:41:12;;;;;;;1999.90;999.90;;;;;;;1.97;100.00;98080.97;5074050;28;20118;-71
2021/12/02 02:43:39;;;;;;;1999.90;999.90;;;;;;;2.00;100.00;98077.19;5074019;28;20443;-71
2021/12/02 02:46:05;;;;;;;1999.90;999.90;;;;;;;2.05;100.00;98074.94;5073662;28;20101;-70
2021/12/02 02:48:32;;;;;;;1999.90;999.90;;;;;;;2.04;100.00;98091.16;5073857;28;20628;-70
2021/12/02 02:51:00;;;;;;;1999.90;999.90;;;;;;;2.09;100.00;98100.47;5073484;28;20469;-70
2021/12/02 02:53:27;;;;;;;1999.90;999.90;;;;;;;2.12;100.00;98086.78;5073968;28;20097;-70
2021/12/02 02:56:06;;;;;;;1999.90;999.90;;;;;;;2.15;100.00;98062.47;5073506;28;20093;-70
2021/12/02 02:58:44;;;;;;;1999.90;999.90;;;;;;;2.16;100.00;98098.09;5073766;28;20492;-70
2021/12/02 03:01:24;;;;;;;1999.90;999.90;;;;;;;2.13;100.00;98067.09;5073584;28;20728;-70
2021/12/02 03:03:59;;;;;;;1999.90;999.90;;;;;;;2.10;100.00;98091.44;5073824;28;20469;-70
2021/12/02 03:06:33;;;;;;;1999.90;999.90;;;;;;;2.06;100.00;98106.09;5073509;28;20158;-70
2021/12/02 03:09:04;;;;;;;1999.90;999.90;;;;;;;2.06;100.00;98107.91;5073845;28;20192;-70
2021/12/02 03:11:40;;;;;;;1999.90;999.90;;;;;;;2.02;100.00;98102.00;5073608;28;20616;-70
2021/12/02 03:14:11;;;;;;;1999.90;999.90;;;;;;;1.97;100.00;98098.88;5073332;28;20161;-70
2021/12/02 03:16:43;;;;;;;1999.90;999.90;;;;;;;1.95;100.00;98104.34;5055477;28;20107;-70
2021/12/02 03:19:10;;;;;;;1999.90;999.90;;;;;;;1.91;100.00;98112.75;5073348;28;20108;-70
2021/12/02 03:21:37;;;;;;;1999.90;999.90;;;;;;;1.90;100.00;98122.63;5073470;28;20528;-70
2021/12/02 03:24:04;;;;;;;1999.90;999.90;;;;;;;1.89;100.00;98128.13;5073027;28;20550;-70
2021/12/02 03:26:32;;;;;;;1999.90;999.90;;;;;;;1.87;100.00;98130.94;5073074;28;20093;-70
2021/12/02 03:28:59;;;;;;;1999.90;999.90;;;;;;;1.88;100.00;98124.56;5055176;28;20113;-70
2021/12/02 03:31:26;;;;;;;1999.90;999.90;;;;;;;1.93;100.00;98156.31;5056681;28;20527;-70
2021/12/02 03:33:53;;;;;;;1999.90;999.90;;;;;;;1.95;100.00;98138.28;5074414;28;20081;-77
2021/12/02 03:36:20;;;;;;;1999.90;999.90;;;;;;;1.97;100.00;98169.28;5073010;28;20107;-76
2021/12/02 03:38:47;;;;;;;1999.90;999.90;;;;;;;1.99;100.00;98142.38;5072980;28;20116;-77
2021/12/02 03:41:14;;;;;;;1999.90;999.90;;;;;;;2.00;100.00;98152.09;5072806;28;20112;-78
2021/12/02 03:43:43;;;;;;;1999.90;999.90;;;;;;;2.03;100.00;98149.16;5073071;28;20494;-77
2021/12/02 03:46:12;;;;;;;1999.90;999.90;;;;;;;2.04;100.00;98142.00;5072619;28;20154;-78
2021/12/02 03:48:38;;;;;;;1999.90;999.90;;;;;;;2.04;100.00;98155.38;5072595;28;20171;-77
2021/12/02 03:51:05;;;;;;;1999.90;999.90;;;;;;;2.04;100.00;98134.81;5072756;28;20423;-78
2021/12/02 03:53:32;;;;;;;1999.90;999.90;;;;;;;2.01;100.00;98146.63;5072681;28;20190;-77
2021/12/02 03:55:59;;;;;;;1999.90;999.90;;;;;;;2.03;100.00;98145.63;5072626;28;20093;-77
2021/12/02 03:58:25;;;;;;;1999.90;999.90;;;;;;;2.03;100.00;98156.34;5079556;28;20089;-77
2021/12/02 04:00:53;;;;;;;1999.90;999.90;;;;;;;2.04;100.00;98158.06;5072617;28;20144;-77
2021/12/02 04:03:19;;;;;;;;;;;;;;;2.05;100.00;98154.41;5073109;28;20090;-77
2021/12/02 04:05:45;;;;;;;;;;;;;;;2.03;100.00;98167.88;5072595;28;20445;-77
2021/12/02 04:08:12;;;;;;;;;;;;;;;2.04;100.00;98155.38;5072926;28;19973;-77
2021/12/02 04:10:39;;;;;;;;;;;;;;;2.06;100.00;98164.09;5072651;28;19960;-77
2021/12/02 04:13:10;;;;;;;;;;;;;;;2.07;100.00;98169.34;5072803;28;19953;-78
2021/12/02 04:15:39;;;;;;;;;;;;;;;2.07;100.00;98174.69;5072536;28;20393;-76
2021/12/02 04:18:07;;;;;;;;;;;;;;;2.06;100.00;98183.69;5072719;28;19955;-77
2021/12/02 04:20:34;;;;;;;;;;;;;;;2.04;100.00;98195.50;5073103;28;19994;-76
2021/12/02 04:23:00;;;;;;;;;;;;;;;2.05;100.00;98198.06;5072971;28;19990;-77
2021/12/02 04:25:27;;;;;;;;;;;;;;;2.05;100.00;98203.41;5054699;28;20014;-77
2021/12/02 04:27:54;;;;;;;;;;;;;;;2.06;100.00;98199.75;5072325;28;19991;-78
2021/12/02 04:30:21;;;;;;;;;;;;;;;2.05;100.00;98199.91;5072467;28;20504;-77
2021/12/02 04:32:47;;;;;;;;;;;;;;;2.04;100.00;98204.38;5072453;28;19945;-76
2021/12/02 04:35:15;;;;;;;;;;;;;;;2.01;100.00;98224.22;5072815;28;20390;-76
2021/12/02 04:37:43;;;;;;;;;;;;;;;1.99;100.00;98222.66;5072624;28;19988;-77
2021/12/02 04:40:10;;;;;;;;;;;;;;;1.95;100.00;98245.31;5072303;28;19961;-77
2021/12/02 04:42:36;;;;;;;;;;;;;;;1.95;100.00;98245.31;5072823;28;20342;-77
2021/12/02 04:45:03;;;;;;;;;;;;;;;1.95;100.00;98245.31;5072191;28;19984;-76
2021/12/02 04:47:29;;;;;;;;;;;;;;;1.95;100.00;98256.00;5072579;28;19985;-76
2021/12/02 04:49:55;;;;;;;;;;;;;;;1.95;100.00;98256.00;5072877;28;20010;-77
2021/12/02 04:52:23;;;;;;;;;;;;;;;2.00;100.00;98286.78;5071835;28;20003;-76
2021/12/02 04:54:49;;;;;;;;;;;;;;;2.04;100.00;98283.81;5072364;28;19982;-77
2021/12/02 04:57:16;;;;;;;;;;;;;;;2.03;100.00;98274.94;5078652;28;19978;-77
2021/12/02 04:59:42;;;;;;;;;;;;;;;2.03;100.00;98298.19;5079221;28;19963;-77
2021/12/02 05:02:08;;;;;;;;;;;;;;;2.01;100.00;98295.63;5091859;28;19987;-77
2021/12/02 05:04:34;;;;;;;;;;;;;;;2.00;100.00;98310.00;5081008;28;19947;-77
2021/12/02 05:07:01;;;;;;;;;;;;;;;1.98;100.00;98296.75;5086656;28;20448;-77
2021/12/02 05:09:28;;;;;;;;;;;;;;;1.97;100.00;98307.59;5081451;28;20063;-77
2021/12/02 05:11:55;;;;;;;;;;;;;;;1.95;100.00;98304.16;5071769;28;19986;-77
2021/12/02 05:14:21;;;;;;;;;;;;;;;1.93;100.00;98316.84;5079305;28;19987;-78
2021/12/02 05:16:47;;;;;;;;;;;;;;;1.93;100.00;98311.50;5089149;28;20036;-77
2021/12/02 05:19:14;;;;;;;;;;;;;;;1.91;100.00;98324.13;5071380;28;19967;-78
2021/12/02 05:21:40;;;;;;;;;;;;;;;1.90;100.00;98317.09;5072128;28;20459;-77
2021/12/02 05:24:07;;;;;;;;;;;;;;;1.88;100.00;98313.69;5091697;28;20011;-77
2021/12/02 05:26:35;;;;;;;;;;;;;;;1.88;100.00;98324.41;5091286;28;20009;-78
2021/12/02 05:29:01;;;;;;;;;;;;;;;1.87;100.00;98322.69;5078841;28;20053;-77
2021/12/02 05:31:27;;;;;;;;;;;;;;;1.82;100.00;98340.00;5083030;28;19995;-77
2021/12/02 05:33:53;;;;;;;;;;;;;;;1.81;100.00;98326.75;5091704;28;19970;-78
2021/12/02 05:36:20;;;;;;;;;;;;;;;1.81;100.00;98324.06;5074052;28;20118;-78
2021/12/02 05:38:46;;;;;;;;;;;;;;;1.79;100.00;98345.59;5071677;28;20001;-78
2021/12/02 05:41:13;;;;;;;;;;;;;;;1.79;100.00;98342.06;5072792;28;20013;-78
2021/12/02 05:43:40;;;;;;;;;;;;;;;1.75;100.00;98351.31;5071347;28;19977;-78
2021/12/02 05:46:07;;;;;;;;;;;;;;;1.73;100.00;98356.81;5083579;28;20000;-77
2021/12/02 05:48:33;;;;;;;;;;;;;;;1.72;100.00;98360.44;5082824;28;20006;-78
2021/12/02 05:51:00;;;;;;;;;;;;;;;1.70;100.00;98374.91;5072025;28;19993;-78
2021/12/02 05:53:26;;;;;;;;;;;;;;;1.70;100.00;98365.09;5071616;28;19996;-77
2021/12/02 05:55:53;;;;;;;;;;;;;;;1.65;100.00;98369.97;5071068;28;19947;-77
2021/12/02 05:58:19;;;;;;;;;;;;;;;1.64;100.00;98370.94;5053401;28;20042;-77
2021/12/02 06:00:47;;;;;;;;;;;;;;;1.60;100.00;98378.34;5083746;28;20515;-77
2021/12/02 06:03:13;;;;;;;;;;;;;;;1.59;100.00;98371.31;5077229;28;19946;-77
2021/12/02 06:05:39;;;;;;;;;;;;;;;1.59;100.00;98389.16;5081898;28;20048;-76
2021/12/02 06:08:06;;;;;;;;;;;;;;;1.56;100.00;98384.06;5094651;28;19946;-76
2021/12/02 06:10:32;;;;;;;;;;;;;;;1.56;100.00;98394.78;5085403;28;19978;-77
2021/12/02 06:12:58;;;;;;;;;;;;;;;1.56;100.00;98406.31;5056975;28;20342;-78
2021/12/02 06:15:24;;;;;;;;;;;;;;;1.53;100.00;98408.41;5082202;28;19966;-78
2021/12/02 06:17:52;;;;;;;;;;;;;;;1.52;100.00;98414.72;5080901;28;19980;-78
2021/12/02 06:20:19;;;;;;;;;;;;;;;1.53;100.00;98405.72;5082897;28;20022;-76
2021/12/02 06:22:45;;;;;;;;;;;;;;;1.52;100.00;98420.06;5089795;28;19946;-77
2021/12/02 06:27:56;;;;;;;;;;;;;;;1.48;100.00;98409.63;5077011;28;19948;-78
2021/12/02 06:30:23;;;;;;;;;;;;;;;1.47;100.00;98431.97;5080674;28;19966;-77
2021/12/02 06:32:50;;;;;;;;;;;;;;;1.44;100.00;98434.91;5087028;28;19985;-77
2021/12/02 06:35:18;;;;;;;;;;;;;;;1.40;100.00;98445.97;5081795;28;19986;-77
2021/12/02 06:37:45;;;;;;;;;;;;;;;1.39;100.00;98436.22;5086280;28;19989;-78
2021/12/02 06:40:12;;;;;;;;;;;;;;;1.39;100.00;98463.84;5092668;28;20478;-78
2021/12/02 06:42:39;;;;;;;;;;;;;;;1.39;100.00;98460.28;5091446;28;20431;-78
2021/12/02 06:45:06;;;;;;;;;;;;;;;1.37;100.00;98455.06;5090301;28;19946;-77
2021/12/02 06:47:36;;;;;;;;;;;;;;;1.34;100.00;98447.31;5081344;28;20470;-77
2021/12/02 06:50:03;;;;;;;;;;;;;;;1.31;100.00;98458.22;5092316;28;20535;-78
2021/12/02 06:52:32;;;;;;;;;;;;;;;1.25;100.00;98453.38;5078495;28;19950;-78
2021/12/02 06:54:58;;;;;;;;;;;;;;;1.22;100.00;98465.16;5074000;28;20241;-78
2021/12/02 06:57:24;;;;;;;;;;;;;;;1.22;100.00;98470.50;5074081;28;19944;-78
2021/12/02 06:59:51;;;;;;;;;;;;;;;1.23;100.00;98484.72;5073812;28;19960;-78
2021/12/02 07:02:18;;;;;;;;;;;;;;;1.21;100.00;98487.50;5056187;28;20047;-78
2021/12/02 07:04:44;;;;;;;;;;;;;;;1.22;100.00;98499.06;5088774;28;20424;-78
2021/12/02 07:07:11;;;;;;;;;;;;;;;1.22;100.00;98505.25;5077864;28;19952;-78
2021/12/02 07:09:38;;;;;;;;;;;;;;;1.20;100.00;98503.66;5073656;28;20454;-78
2021/12/02 07:12:05;;;;;;;;;;;;;;;1.19;100.00;98515.31;5073908;28;19976;-77
2021/12/02 07:14:31;;;;;;;;;;;;;;;1.17;100.00;98521.63;5085371;28;19975;-78
2021/12/02 07:16:57;;;;;;;;;;;;;;;1.16;100.00;98530.66;5083962;28;20400;-77
2021/12/02 07:19:25;;;;;;;;;;;;;;;1.17;100.00;98518.97;5073561;28;20283;-77
2021/12/02 07:21:51;;;;;;;;;;;;;;;1.16;100.00;98527.97;5082797;28;20002;-77
2021/12/02 07:24:18;;;;;;;;;;;;;;;1.13;100.00;98538.03;5092210;28;19952;-77
2021/12/02 07:26:46;;;;;;;;;;;;;;;1.14;100.00;98540.59;5087992;28;20041;-78
2021/12/02 07:29:14;;;;;;;;;;;;;;;1.14;100.00;98534.41;5091967;28;19962;-77
2021/12/02 07:31:41;;;;;;;;;;;;;;;1.16;100.00;98553.81;5078961;28;19943;-77
2021/12/02 07:34:08;;;;;;;;;;;;;;;1.15;100.00;98544.97;5074607;28;19948;-77
2021/12/02 07:36:35;;;;;;;;;;;;;;;1.14;100.00;98551.28;5075148;28;19981;-76
2021/12/02 07:39:02;;;;;;;;;;;;;;;1.16;100.00;98564.50;5093757;28;19994;-76
2021/12/02 07:41:28;;;;;;;;;;;;;;;1.18;100.00;98559.91;5089200;28;20009;-76
2021/12/02 07:43:56;;;;;;;;;;;;;;;1.18;100.00;98554.56;5075403;28;19944;-77
2021/12/02 07:46:22;;;;;;;;;;;;;;;1.16;100.00;98568.06;5076036;28;19946;-77
2021/12/02 07:48:49;;;;;;;;;;;;;;;1.17;100.00;98561.72;5080615;28;19978;-77
2021/12/02 07:51:16;;;;;;;;;;;;;;;1.17;100.00;98572.41;5093023;28;19971;-77
2021/12/02 07:53:43;;;;;;;;;;;;;;;1.19;100.00;98576.78;5075433;28;19945;-77
2021/12/02 07:56:11;;;;;;;;;;;;;;;1.14;100.00;98578.00;5078726;28;20055;-77
2021/12/02 07:58:39;;;;;;;;;;;;;;;1.14;100.00;98582.50;5078610;28;19993;-77
2021/12/02 08:01:07;;;;;;;;;;;;;;;1.16;100.00;98588.56;5079899;28;19989;-77
2021/12/02 08:03:34;;;;;;;;;;;;;;;1.18;100.00;98592.00;5083974;28;19951;-77
2021/12/02 08:06:00;;;;;;;;;;;;;;;1.19;100.00;98590.16;5064442;28;20307;-77
2021/12/02 08:08:26;;;;;;;;;;;;;;;1.19;100.00;98585.69;5075256;28;20413;-77
2021/12/02 08:10:53;;;;;;;;;;;;;;;1.17;100.00;98587.59;5083992;28;20483;-77
2021/12/02 08:13:19;;;;;;;;;;;;;;;1.20;100.00;98606.06;5087670;28;19979;-78
2021/12/02 08:15:46;;;;;;;;;;;;;;;1.22;100.00;98603.31;5083711;28;20043;-77
2021/12/02 08:18:14;;;;;;;;;;;;;;;1.21;100.00;98601.59;5082077;28;19942;-78
2021/12/02 08:20:40;;;;;;;;;;;;;;;1.22;100.00;98622.03;5083135;28;20486;-78
2021/12/02 08:23:06;;;;;;;;;;;;;;;1.26;100.00;98636.84;5092542;28;20453;-77
2021/12/02 08:25:32;;;;;;;;;;;;;;;1.22;100.00;98638.06;5092330;28;19995;-77
2021/12/02 08:28:00;;;;;;;;;;;;;;;1.25;100.00;98649.34;5091942;28;19948;-77
2021/12/02 08:30:28;;;;;;;;;;;;;;;1.22;100.00;98656.78;5091682;28;20015;-77
2021/12/02 08:32:55;;;;;;;;;;;;;;;1.25;100.00;98664.53;5081599;28;19949;-77
2021/12/02 08:35:23;;;;;;;;;;;;;;;1.33;100.00;98662.13;5089817;28;19943;-77
2021/12/02 08:37:52;;;;;;;;;;;;;;;1.43;100.00;98672.97;5090519;28;19937;-78
2021/12/02 08:40:23;;;;;;;;;;;;;;;1.43;100.00;98683.69;5082570;28;20013;-78
2021/12/02 08:42:49;;;;;;;;;;;;;;;1.45;100.00;98682.59;5071794;28;19940;-77
2021/12/02 08:45:16;;;;;;;;;;;;;;;1.53;100.00;98697.22;5086969;28;19984;-78
2021/12/02 08:47:45;;;;;;;;;;;;;;;1.57;100.00;98688.84;5091937;28;19949;-77
2021/12/02 08:50:12;;;;;;;;;;;;;;;1.61;100.00;98705.50;5081633;28;19972;-78
2021/12/02 08:52:40;;;;;;;;;;;;;;;1.64;100.00;98707.94;5074701;28;19944;-78
2021/12/02 08:55:07;;;;;;;;;;;;;;;1.56;100.00;98710.34;5057039;28;19947;-78
2021/12/02 08:57:33;;;;;;;;;;;;;;;1.46;100.00;98712.88;5081893;28;19949;-78
2021/12/02 08:59:59;;;;;;;;;;;;;;;1.36;100.00;98725.22;5083724;28;20000;-77
2021/12/02 09:02:26;;;;;;;;;;;;;;;1.33;100.00;98726.31;5075459;28;19978;-78
2021/12/02 09:04:53;;;;;;;;;;;;;;;1.38;100.00;98729.50;5086882;28;19942;-78
2021/12/02 09:07:19;;;;;;;;;;;;;;;1.39;100.00;98736.56;5072315;28;19991;-78
2021/12/02 09:09:47;;;;;;;;;;;;;;;1.43;100.00;98731.81;5082360;28;20004;-78
2021/12/02 09:12:14;;;;;;;;;;;;;;;1.45;100.00;98736.06;5087191;28;20425;-78
2021/12/02 09:14:40;;;;;;;;;;;;;;;1.42;100.00;98736.31;5091786;28;19943;-78
2021/12/02 09:17:07;;;;;;;;;;;;;;;1.54;100.00;98734.53;5090803;28;20446;-79
2021/12/02 09:19:33;;;;;;;;;;;;;;;1.64;100.00;98740.03;5091840;28;20005;-78
2021/12/02 09:22:01;;;;;;;;;;;;;;;1.75;100.00;98749.91;5091090;28;19988;-78
2021/12/02 09:24:27;;;;;;;;;;;;;;;2.10;100.00;98749.88;5091851;28;19948;-78
2021/12/02 09:26:55;;;;;;;;;;;;;;;2.07;100.00;98759.97;5078099;28;19948;-78
2021/12/02 09:29:22;;;;;;;;;;;;;;;1.99;100.00;98750.72;5078340;28;19961;-79
2021/12/02 09:31:50;;;;;;;;;;;;;;;1.72;100.00;98759.03;5088912;28;19963;-78
2021/12/02 09:34:16;;;;;;;;;;;;;;;1.64;100.00;98761.44;5079580;28;19980;-78
2021/12/02 09:36:43;;;;;;;;;;;;;;;1.33;100.00;98763.72;5071219;28;19978;-78
2021/12/02 09:39:10;;;;;;;;;;;;;;;1.39;100.00;98773.97;5071447;28;19956;-78
2021/12/02 09:41:36;;;;;;;;;;;;;;;1.25;100.00;98768.81;5075098;28;20042;-79
2021/12/02 09:44:05;;;;;;;;;;;;;;;1.30;100.00;98783.53;5076286;28;20489;-78
2021/12/02 09:46:32;;;;;;;;;;;;;;;1.28;100.00;98781.94;5077731;28;19982;-78
2021/12/02 09:49:01;;;;;;;;;;;;;;;1.36;100.00;98779.53;5093000;28;20038;-79
2021/12/02 09:51:32;;;;;;;;;;;;;;;1.37;100.00;98777.72;5094516;28;20409;-79
2021/12/02 09:54:05;;;;;;;;;;;;;;;1.43;100.00;98779.94;5095558;28;19942;-79
2021/12/02 09:56:34;;;;;;;;;;;;;;;1.42;100.00;98795.13;5093890;28;19954;-79
2021/12/02 09:59:05;;;;;;;;;;;;;;;1.40;100.00;98791.72;5095400;28;19939;-79
2021/12/02 10:01:39;;;;;;;;;;;;;;;1.54;100.00;98787.16;5084673;28;20372;-78
2021/12/02 10:04:07;;;;;;;;;;;;;;;1.59;100.00;98799.25;5075154;28;19945;-77
2021/12/02 10:06:33;;;;;;;;;;;;;;;1.63;100.00;98800.72;5086685;28;19953;-78
2021/12/02 10:09:09;;;;;;;;;;;;;;;1.88;100.00;98800.69;5084176;28;19944;-78
2021/12/02 10:11:39;;;;;;;;;;;;;;;2.21;100.00;98791.03;5092930;28;19959;-77
2021/12/02 10:14:11;;;;;;;;;;;;;;;2.44;100.00;98790.09;5074824;28;19948;-78
2021/12/02 10:16:42;;;;;;;;;;;;;;;2.55;100.00;98780.34;5055864;28;20023;-77
2021/12/02 10:19:10;;;;;;;;;;;;;;;2.54;100.00;98797.41;5073950;28;20334;-78
2021/12/02 10:21:39;;;;;;;;;;;;;;;2.46;100.00;98801.53;5075159;28;19985;-78
2021/12/02 10:24:07;;;;;;;;;;;;;;;2.52;100.00;98800.19;5073838;28;20018;-78
2021/12/02 10:26:39;;;;;;;;;;;;;;;2.41;100.00;98794.84;5091909;28;20101;-78
2021/12/02 10:29:13;;;;;;;;;;;;;;;2.45;100.00;98797.16;5081613;28;20067;-78
2021/12/02 10:31:46;;;;;;;;;;;;;;;2.40;100.00;98796.66;5061427;28;19958;-78
2021/12/02 10:34:13;;;;;;;;;;;;;;;2.40;100.00;98785.94;5067113;28;20352;-77
2021/12/02 10:36:43;;;;;;;;;;;;;;;2.60;100.00;98780.84;5094381;28;20413;-78
2021/12/02 10:39:11;;;;;;;;;;;;;;;2.61;100.00;98798.63;5093843;28;20451;-77
2021/12/02 10:41:42;;;;;;;;;;;;;;;2.77;100.00;98800.97;5081842;28;19942;-77
2021/12/02 10:44:19;;;;;;;;;;;;;;;3.13;100.00;98794.44;5074318;28;19976;-78
2021/12/02 10:46:55;;;;;;;;;;;;;;;3.09;100.00;98805.56;5076855;28;19944;-78
2021/12/02 10:49:22;;;;;;;;;;;;;;;3.08;100.00;98807.38;5094118;28;19960;-78
2021/12/02 10:51:50;;;;;;;;;;;;;;;2.97;100.00;98800.19;5093868;28;19959;-78
2021/12/02 10:54:19;;;;;;;;;;;;;;;2.95;100.00;98803.97;5093678;28;19939;-77
2021/12/02 10:56:46;;;;;;;;;;;;;;;2.65;100.00;98806.31;5089744;28;20003;-78
2021/12/02 10:59:29;;;;;;;;;;;;;;;2.71;100.00;98817.50;5090635;28;19962;-78
2021/12/02 11:01:59;;;;;;;;;;;;;;;2.67;100.00;98811.53;5080834;28;19948;-78
2021/12/02 11:04:26;;;;;;;;;;;;;;;2.72;100.00;98814.72;5075431;28;19946;-79
2021/12/02 11:07:00;;;;;;;;;;;;;;;2.73;100.00;98808.38;5089650;28;20386;-79
2021/12/02 11:09:27;;;;;;;;;;;;;;;2.81;100.00;98813.97;5083027;28;20093;-78
2021/12/02 11:12:07;;;;;;;;;;;;;;;2.90;100.00;98824.94;5088298;28;20071;-78
2021/12/02 11:14:34;;;;;;;;;;;;;;;3.17;100.00;98830.75;5075030;28;20029;-78
2021/12/02 11:17:07;;;;;;;;;;;;;;;3.32;100.00;98830.50;5079338;28;20044;-78
2021/12/02 11:19:34;;;;;;;;;;;;;;;3.40;100.00;98838.78;5093472;28;19954;-78
2021/12/02 11:22:04;;;;;;;;;;;;;;;3.29;100.00;98828.09;5073773;28;19952;-78
2021/12/02 11:24:31;;;;;;;;;;;;;;;3.20;100.00;98836.88;5079670;28;20051;-78
2021/12/02 11:27:06;;;;;;;;;;;;;;;3.29;100.00;98844.19;5093617;28;19993;-77
2021/12/02 11:29:46;;;;;;;;;;;;;;;3.29;100.00;98833.44;5092938;28;20013;-77
2021/12/02 11:32:23;;;;;;;;;;;;;;;3.29;100.00;98836.13;5093626;28;19967;-77
2021/12/02 11:34:58;;;;;;;;;;;;;;;3.25;100.00;98840.88;5082046;28;19946;-78
2021/12/02 11:37:25;;;;;;;;;;;;;;;3.29;100.00;98839.66;5082160;28;20324;-78
2021/12/02 11:39:52;;;;;;;;;;;;;;;3.57;100.00;98841.91;5063850;28;20486;-78
2021/12/02 11:42:18;;;;;;;;;;;;;;;3.80;100.00;98848.91;5085116;28;20415;-78
2021/12/02 11:44:45;;;;;;;;;;;;;;;3.93;100.00;98847.88;5085605;28;19994;-76
2021/12/02 11:47:11;;;;;;;;;;;;;;;3.76;100.00;98857.34;5072730;28;20000;-75
2021/12/02 11:49:39;;;;;;;;;;;;;;;3.38;100.00;98853.28;5087544;28;20009;-76
2021/12/02 11:52:05;;;;;;;;;;;;;;;3.05;100.00;98861.25;5073240;28;19967;-77
2021/12/02 11:54:32;;;;;;;;;;;;;;;3.06;100.00;98873.69;5073325;28;20005;-75
2021/12/02 11:56:59;;;;;;;;;;;;;;;3.11;100.00;98878.66;5073313;28;20404;-76
2021/12/02 11:59:26;;;;;;;;;;;;;;;3.06;100.00;98883.53;5093278;28;20437;-77
2021/12/02 12:01:55;;;;;;;;;;;;;;;2.99;100.00;98881.38;5091330;28;19951;-76
2021/12/02 12:04:22;;;;;;;;;;;;;;;2.82;100.00;98896.09;5086629;28;20029;-77
2021/12/02 12:06:53;;;;;;;;;;;;;;;2.66;100.00;98890.22;5073416;28;19988;-77
2021/12/02 12:09:20;;;;;;;;;;;;;;;2.80;100.00;98911.41;5080484;28;20376;-76
2021/12/02 12:11:47;;;;;;;;;;;;;;;2.80;100.00;98903.38;5073035;28;20010;-76
2021/12/02 12:14:18;;;;;;;;;;;;;;;2.91;100.00;98912.41;5072910;28;20052;-76
2021/12/02 12:16:46;;;;;;;;;;;;;;;2.71;100.00;98917.50;5072392;28;19942;-76
2021/12/02 12:19:15;;;;;;;;;;;;;;;2.58;100.00;98927.44;5072076;28;20525;-75